Time;durP1;ratioP1;P1;durP2;ratioP2;P2;SDS_P1;SDS_P2;PMS_P1;PMS_P2;Temp;Humidity;BMP_temperature;BMP_pressure;BME280_temperature;BME280_humidity;BME280_pressure;Samples;Min_cycle;Max_cycle;Signal;HPM_P1;HPM_P2
2021/12/27 00:00:29;;;;;;;1.67;0.93;;;1.90;90.30;;;;;;6239715;22;20085;-84
2021/12/27 00:02:57;;;;;;;1.83;0.98;;;2.00;90.40;;;;;;6214509;22;20012;-83
2021/12/27 00:05:30;;;;;;;1.35;0.95;;;2.00;90.40;;;;;;6217525;22;19996;-84
2021/12/27 00:07:56;;;;;;;3.13;1.00;;;2.00;90.40;;;;;;6218541;22;20499;-84
2021/12/27 00:10:24;;;;;;;1.50;0.73;;;2.00;90.40;;;;;;6245690;22;20083;-84
2021/12/27 00:12:54;;;;;;;1.65;0.90;;;2.00;90.40;;;;;;6215874;22;20087;-84
2021/12/27 00:15:23;;;;;;;1.20;0.90;;;1.90;90.40;;;;;;6215650;22;20475;-84
2021/12/27 00:17:49;;;;;;;1.58;0.95;;;2.00;90.50;;;;;;6215873;22;20101;-85
2021/12/27 00:20:18;;;;;;;2.22;1.02;;;1.90;90.40;;;;;;6215961;22;20012;-85
2021/12/27 00:22:45;;;;;;;1.58;0.88;;;2.00;90.50;;;;;;6215328;22;20012;-85
2021/12/27 00:25:12;;;;;;;2.45;1.17;;;2.00;90.50;;;;;;6188961;22;20091;-84
2021/12/27 00:27:39;;;;;;;1.23;0.90;;;2.00;90.50;;;;;;6216063;22;20047;-84
2021/12/27 00:30:06;;;;;;;1.63;0.80;;;2.00;90.50;;;;;;6216754;22;20832;-85
2021/12/27 00:32:36;;;;;;;1.13;0.80;;;2.00;90.50;;;;;;6241387;22;20097;-84
2021/12/27 00:35:06;;;;;;;1.50;0.90;;;2.00;90.50;;;;;;6241571;22;20085;-85
2021/12/27 00:37:34;;;;;;;1.50;0.95;;;2.00;90.50;;;;;;6215894;22;20012;-84
2021/12/27 00:40:02;;;;;;;1.35;0.93;;;2.10;90.50;;;;;;6206018;23;20016;-84
2021/12/27 00:42:30;;;;;;;1.23;0.77;;;2.00;90.50;;;;;;6155945;23;20035;-84
2021/12/27 00:44:59;;;;;;;1.60;0.80;;;2.10;90.60;;;;;;6219621;23;20016;-85
2021/12/27 00:47:24;;;;;;;1.08;0.93;;;2.10;90.60;;;;;;6185178;23;20008;-84
2021/12/27 00:49:50;;;;;;;1.80;0.93;;;2.10;90.60;;;;;;6182569;23;20020;-85
2021/12/27 00:52:16;;;;;;;1.30;0.80;;;2.10;90.60;;;;;;6211060;23;20476;-85
2021/12/27 00:54:42;;;;;;;1.02;0.68;;;2.10;90.60;;;;;;6185626;23;20122;-85
2021/12/27 00:57:08;;;;;;;1.42;1.00;;;2.10;90.60;;;;;;6185584;23;20009;-85
2021/12/27 00:59:33;;;;;;;1.73;0.82;;;2.10;90.60;;;;;;6182531;23;20008;-85
2021/12/27 01:02:05;;;;;;;0.77;0.63;;;2.10;90.60;;;;;;6211590;23;20000;-84
2021/12/27 01:04:34;;;;;;;2.00;0.90;;;2.20;90.60;;;;;;6208496;23;20028;-85
2021/12/27 01:07:02;;;;;;;1.55;0.95;;;2.10;90.60;;;;;;6121136;23;20018;-85
2021/12/27 01:09:46;;;;;;;1.42;0.93;;;2.10;90.60;;;;;;6098801;23;20013;-84
2021/12/27 01:15:11;;;;;;;1.00;0.80;;;2.20;90.60;;;;;;6151174;23;20442;-84
2021/12/27 01:17:40;;;;;;;0.75;0.60;;;2.20;90.60;;;;;;6149426;23;20508;-84
2021/12/27 01:20:11;;;;;;;1.63;0.90;;;2.20;90.60;;;;;;6151450;23;20019;-84
2021/12/27 01:22:39;;;;;;;1.45;0.88;;;2.20;90.70;;;;;;6150908;23;20018;-85
2021/12/27 01:25:09;;;;;;;0.82;0.70;;;2.20;90.70;;;;;;6151071;23;20346;-83
2021/12/27 01:27:36;;;;;;;1.10;0.80;;;2.10;90.70;;;;;;6151939;23;20488;-82
2021/12/27 01:30:06;;;;;;;1.48;0.93;;;2.40;90.80;;;;;;6153446;23;20089;-83
2021/12/27 01:32:43;;;;;;;1.98;0.85;;;2.20;90.70;;;;;;6122693;23;20025;-83
2021/12/27 01:35:08;;;;;;;1.55;0.82;;;2.20;90.70;;;;;;6100501;23;20454;-83
2021/12/27 01:37:34;;;;;;;1.52;0.80;;;2.20;90.70;;;;;;6123550;23;20012;-83
2021/12/27 01:40:00;;;;;;;1.48;0.90;;;2.30;90.80;;;;;;6212465;23;20433;-83
2021/12/27 01:42:27;;;;;;;1.48;0.70;;;2.20;90.80;;;;;;6211612;23;20373;-83
2021/12/27 01:44:53;;;;;;;2.08;1.00;;;2.20;90.80;;;;;;6186717;23;20013;-84
2021/12/27 01:47:23;;;;;;;2.17;1.08;;;2.30;90.80;;;;;;6186826;23;20318;-84
2021/12/27 01:49:52;;;;;;;2.40;1.27;;;2.10;90.80;;;;;;6209055;23;20066;-84
2021/12/27 01:52:23;;;;;;;2.10;1.00;;;2.30;90.80;;;;;;6186784;23;20067;-84
2021/12/27 01:54:58;;;;;;;1.83;1.00;;;2.30;90.80;;;;;;6210194;23;20082;-84
2021/12/27 01:57:34;;;;;;;0.77;0.57;;;2.30;90.80;;;;;;6146084;23;20022;-85
2021/12/27 02:00:05;;;;;;;1.85;0.90;;;2.20;90.80;;;;;;6170042;23;20025;-85
2021/12/27 02:02:33;;;;;;;1.05;0.90;;;2.30;90.80;;;;;;6148884;23;20037;-85
2021/12/27 02:05:02;;;;;;;1.35;0.70;;;2.30;90.90;;;;;;6103880;23;20472;-85
2021/12/27 02:07:27;;;;;;;1.08;0.80;;;2.30;90.80;;;;;;6103205;23;20010;-85
2021/12/27 02:10:02;;;;;;;1.65;0.90;;;2.30;90.80;;;;;;6105646;23;20048;-85
2021/12/27 02:15:29;;;;;;;1.05;0.70;;;2.30;90.90;;;;;;6001096;23;20135;-85
2021/12/27 02:18:48;;;;;;;1.90;1.02;;;2.40;90.90;;;;;;5984521;23;20035;-86
2021/12/27 02:21:45;;;;;;;1.52;0.98;;;2.40;90.90;;;;;;5900407;24;20078;-86
2021/12/27 02:24:49;;;;;;;1.70;0.88;;;2.30;90.90;;;;;;5955785;23;20461;-86
2021/12/27 02:27:30;;;;;;;1.08;0.85;;;2.40;90.90;;;;;;5903273;24;20066;-86
2021/12/27 02:30:22;;;;;;;1.73;0.85;;;2.40;90.90;;;;;;5904136;24;20020;-86
2021/12/27 02:37:09;;;;;;;1.13;0.68;;;2.50;90.90;;;;;;5894419;24;20517;-86
2021/12/27 02:39:54;;;;;;;1.67;0.88;;;2.50;90.90;;;;;;5931506;24;20065;-86
2021/12/27 02:43:05;;;;;;;1.40;0.63;;;2.40;90.90;;;;;;5915121;24;20018;-86
2021/12/27 02:45:55;;;;;;;1.05;0.65;;;2.50;90.90;;;;;;5895679;24;20021;-86
2021/12/27 02:51:52;;;;;;;1.10;0.98;;;2.50;90.90;;;;;;5872076;24;20047;-86
2021/12/27 02:54:27;;;;;;;1.48;0.90;;;2.50;90.90;;;;;;5917713;24;20088;-85
2021/12/27 02:57:40;;;;;;;1.77;1.00;;;2.50;91.00;;;;;;5921480;24;20485;-86
2021/12/27 03:08:14;;;;;;;1.20;0.70;;;2.50;91.00;;;;;;5724034;24;20509;-86
2021/12/27 03:11:07;;;;;;;1.15;0.60;;;2.60;91.00;;;;;;5679060;24;20340;-86
2021/12/27 03:14:03;;;;;;;0.80;0.60;;;2.60;91.00;;;;;;5696476;24;20033;-86
2021/12/27 03:17:01;;;;;;;1.20;0.60;;;2.60;91.00;;;;;;5771696;24;20026;-86
2021/12/27 03:20:19;;;;;;;0.93;0.75;;;2.60;91.00;;;;;;5702346;25;20107;-86
2021/12/27 03:22:57;;;;;;;0.75;0.50;;;2.60;91.00;;;;;;5730259;24;20035;-86
2021/12/27 03:25:36;;;;;;;0.77;0.50;;;2.60;91.00;;;;;;5751126;24;20026;-86
2021/12/27 03:28:26;;;;;;;0.93;0.65;;;2.60;91.00;;;;;;5795693;24;20019;-86
2021/12/27 03:31:30;;;;;;;0.98;0.50;;;2.60;91.10;;;;;;5841010;24;20022;-86
2021/12/27 03:37:50;;;;;;;0.75;0.43;;;2.60;91.10;;;;;;5760578;24;20024;-86
2021/12/27 03:44:31;;;;;;;0.80;0.50;;;2.60;91.10;;;;;;5626509;25;20043;-86
2021/12/27 03:47:31;;;;;;;1.02;0.60;;;2.70;91.10;;;;;;5650432;25;20049;-87
2021/12/27 03:53:57;;;;;;;1.20;0.68;;;2.70;91.10;;;;;;5652208;25;20461;-86
2021/12/27 04:04:23;;;;;;;0.73;0.68;;;2.70;91.20;;;;;;5753613;24;20028;-86
2021/12/27 04:07:27;;;;;;;0.57;0.43;;;2.80;91.20;;;;;;5737158;24;20024;-86
2021/12/27 04:11:01;;;;;;;1.45;0.73;;;2.80;91.20;;;;;;5766497;24;20027;-86
2021/12/27 04:14:03;;;;;;;1.17;0.52;;;2.70;91.20;;;;;;5846417;24;20041;-87
2021/12/27 04:16:50;;;;;;;0.70;0.45;;;2.80;91.20;;;;;;5863213;24;20515;-86
2021/12/27 04:20:26;;;;;;;1.55;0.70;;;2.80;91.20;;;;;;5808730;24;20023;-88
2021/12/27 04:30:08;;;;;;;0.30;0.30;;;2.80;91.20;;;;;;5689653;25;20021;-86
2021/12/27 04:33:03;;;;;;;0.80;0.40;;;2.90;91.20;;;;;;5710891;25;20031;-86
2021/12/27 04:36:09;;;;;;;0.82;0.60;;;2.90;91.20;;;;;;5676958;25;20020;-85
2021/12/27 04:42:41;;;;;;;0.40;0.30;;;2.90;91.30;;;;;;5773523;24;20457;-86
2021/12/27 04:53:16;;;;;;;1.02;0.60;;;3.00;91.30;;;;;;5856733;24;20022;-87
2021/12/27 04:59:46;;;;;;;1.08;0.75;;;3.00;91.30;;;;;;5763769;24;20371;-87
2021/12/27 05:02:32;;;;;;;1.10;0.57;;;3.00;91.30;;;;;;5704172;25;20029;-87
2021/12/27 05:05:18;;;;;;;1.13;0.68;;;3.00;91.30;;;;;;5669152;25;20408;-86
2021/12/27 05:19:02;;;;;;;1.02;0.50;;;3.10;91.30;;;;;;5653597;25;20538;-86
2021/12/27 05:22:35;;;;;;;0.77;0.50;;;3.10;91.30;;;;;;5687838;25;20052;-86
2021/12/27 05:29:39;;;;;;;1.00;0.73;;;3.10;91.40;;;;;;5685904;25;20032;-88
2021/12/27 05:32:48;;;;;;;0.52;0.47;;;3.10;91.40;;;;;;5737768;25;20099;-87
2021/12/27 06:50:57;;;;;;;0.70;0.40;;;3.60;91.50;;;;;;6029831;23;20098;-87
2021/12/27 06:53:23;;;;;;;0.63;0.50;;;3.70;91.50;;;;;;6047492;23;20019;-85
2021/12/27 06:55:49;;;;;;;0.70;0.52;;;3.60;91.50;;;;;;6021278;23;20151;-85
2021/12/27 06:58:15;;;;;;;0.93;0.52;;;3.70;91.50;;;;;;6017920;23;20098;-85
2021/12/27 07:00:41;;;;;;;0.80;0.60;;;3.70;91.60;;;;;;6040402;23;20015;-85
2021/12/27 07:03:08;;;;;;;1.42;0.70;;;3.60;91.60;;;;;;6017159;23;20021;-85
2021/12/27 07:05:34;;;;;;;1.30;0.65;;;3.70;91.60;;;;;;6007966;23;20024;-86
2021/12/27 07:08:00;;;;;;;0.73;0.60;;;3.80;91.60;;;;;;6030838;23;20016;-86
2021/12/27 07:10:26;;;;;;;1.27;0.75;;;3.80;91.60;;;;;;6109800;23;20511;-85
2021/12/27 07:12:52;;;;;;;1.25;0.80;;;3.80;91.70;;;;;;6165137;23;20055;-85
2021/12/27 07:15:18;;;;;;;1.35;0.80;;;3.90;91.70;;;;;;6163264;23;20012;-85
2021/12/27 07:17:46;;;;;;;0.88;0.70;;;3.80;91.70;;;;;;6266904;22;20093;-86
2021/12/27 07:20:12;;;;;;;0.88;0.80;;;3.80;91.70;;;;;;6263344;22;20534;-84
2021/12/27 07:22:38;;;;;;;1.33;0.73;;;3.90;91.70;;;;;;6263294;22;20047;-85
2021/12/27 07:25:05;;;;;;;0.73;0.52;;;3.90;91.70;;;;;;6278457;22;20008;-85
2021/12/27 07:27:31;;;;;;;1.33;0.80;;;3.90;91.70;;;;;;6287663;22;20030;-85
2021/12/27 07:29:57;;;;;;;0.98;0.60;;;3.90;91.70;;;;;;6221290;22;20468;-85
2021/12/27 07:32:23;;;;;;;1.00;0.60;;;4.00;91.80;;;;;;6244149;23;20411;-85
2021/12/27 07:34:50;;;;;;;1.23;0.70;;;3.90;91.70;;;;;;6181342;22;20018;-86
2021/12/27 07:37:16;;;;;;;2.50;0.88;;;4.00;91.80;;;;;;6220369;22;20011;-85
2021/12/27 07:39:43;;;;;;;1.67;0.88;;;4.00;91.70;;;;;;6254803;22;20119;-86
2021/12/27 07:42:10;;;;;;;1.00;0.60;;;4.10;91.80;;;;;;6254035;22;20541;-85
2021/12/27 07:44:36;;;;;;;0.70;0.60;;;4.00;91.80;;;;;;6274380;22;20015;-86
2021/12/27 07:47:05;;;;;;;1.05;0.65;;;4.10;91.80;;;;;;6250992;22;20011;-87
2021/12/27 07:49:31;;;;;;;1.30;0.57;;;4.10;91.80;;;;;;6253469;22;20026;-86
2021/12/27 07:51:57;;;;;;;1.60;0.85;;;4.10;91.80;;;;;;6247103;22;20054;-86
2021/12/27 07:54:23;;;;;;;2.40;1.10;;;4.20;91.80;;;;;;6252438;22;20015;-86
2021/12/27 07:56:49;;;;;;;1.88;0.82;;;4.20;91.80;;;;;;6250284;22;20015;-86
2021/12/27 07:59:15;;;;;;;1.38;0.85;;;4.20;91.80;;;;;;6250312;22;20451;-86
2021/12/27 08:01:43;;;;;;;1.90;0.80;;;4.20;91.80;;;;;;6252497;22;20024;-87
2021/12/27 08:04:16;;;;;;;1.25;0.70;;;4.20;91.80;;;;;;6253949;22;20542;-86
2021/12/27 08:06:42;;;;;;;1.58;1.00;;;4.20;91.90;;;;;;6280502;22;20090;-88
2021/12/27 08:09:10;;;;;;;2.25;1.02;;;4.20;91.90;;;;;;6253067;22;20018;-88
2021/12/27 08:11:39;;;;;;;0.95;0.68;;;4.20;91.90;;;;;;6251670;22;20049;-88
2021/12/27 08:14:05;;;;;;;1.95;1.00;;;4.20;91.90;;;;;;6253763;22;20020;-88
2021/12/27 08:16:31;;;;;;;1.92;0.80;;;4.20;91.90;;;;;;6228067;22;20007;-87
2021/12/27 08:18:57;;;;;;;2.13;1.00;;;4.20;91.90;;;;;;6227600;22;20050;-87
2021/12/27 08:21:25;;;;;;;1.83;0.90;;;4.30;91.90;;;;;;6253704;22;20014;-87
2021/12/27 08:23:51;;;;;;;1.60;0.98;;;4.30;91.90;;;;;;6228079;22;20015;-87
2021/12/27 08:26:18;;;;;;;1.27;0.90;;;4.50;92.00;;;;;;6253380;22;20019;-87
2021/12/27 08:28:46;;;;;;;1.73;0.95;;;4.40;92.00;;;;;;6278839;22;20015;-87
2021/12/27 08:31:14;;;;;;;1.10;0.82;;;4.20;91.90;;;;;;6255661;22;20015;-87
2021/12/27 08:33:40;;;;;;;1.92;1.10;;;4.30;91.90;;;;;;6231144;22;20011;-88
2021/12/27 08:36:06;;;;;;;0.55;0.50;;;4.30;91.90;;;;;;6232556;22;20042;-87
2021/12/27 08:38:32;;;;;;;2.17;1.13;;;4.40;91.90;;;;;;6257496;22;20019;-88
2021/12/27 08:40:58;;;;;;;1.52;0.90;;;4.40;91.90;;;;;;6254397;22;20011;-88
2021/12/27 08:43:25;;;;;;;1.92;1.00;;;4.40;91.90;;;;;;6253449;22;20018;-87
2021/12/27 08:45:52;;;;;;;2.28;1.20;;;4.40;92.00;;;;;;6281073;22;20160;-87
2021/12/27 08:48:19;;;;;;;1.65;0.82;;;4.40;92.00;;;;;;6289720;22;20139;-88
2021/12/27 08:50:45;;;;;;;1.30;0.77;;;4.50;92.00;;;;;;6314778;22;20011;-88
2021/12/27 08:53:10;;;;;;;1.13;0.82;;;4.60;92.00;;;;;;6313801;22;20002;-88
2021/12/27 08:55:37;;;;;;;2.58;1.23;;;4.50;92.00;;;;;;6315564;22;20014;-88
2021/12/27 08:58:04;;;;;;;1.42;0.80;;;4.40;92.00;;;;;;6341891;22;20046;-88
2021/12/27 09:00:33;;;;;;;1.65;0.80;;;4.50;92.00;;;;;;6314531;22;20007;-89
2021/12/27 09:02:59;;;;;;;1.58;0.77;;;4.60;92.00;;;;;;6288800;22;20036;-88
2021/12/27 09:05:38;;;;;;;1.80;1.10;;;4.60;92.00;;;;;;6225459;22;20098;-89
2021/12/27 09:08:04;;;;;;;1.15;0.80;;;4.60;92.00;;;;;;6224083;22;20011;-86
2021/12/27 09:10:30;;;;;;;1.08;0.77;;;4.50;92.00;;;;;;6223308;22;20289;-86
2021/12/27 09:12:56;;;;;;;1.98;0.80;;;4.60;92.30;;;;;;6226169;22;20077;-85
2021/12/27 09:15:21;;;;;;;1.13;0.75;;;4.60;92.00;;;;;;6251725;22;20087;-85
2021/12/27 09:17:47;;;;;;;1.50;0.90;;;4.70;92.00;;;;;;6226853;22;20481;-85
2021/12/27 09:20:14;;;;;;;1.17;0.73;;;4.70;92.00;;;;;;6252492;22;20016;-85
2021/12/27 09:22:42;;;;;;;1.05;0.75;;;4.70;92.00;;;;;;6248199;22;20011;-85
2021/12/27 09:25:08;;;;;;;1.70;0.77;;;4.60;92.00;;;;;;6247332;22;20027;-85
2021/12/27 09:27:34;;;;;;;0.70;0.60;;;4.70;92.00;;;;;;6221834;22;20138;-86
2021/12/27 09:30:00;;;;;;;1.52;0.90;;;4.60;92.00;;;;;;6222457;22;20022;-85
2021/12/27 09:32:26;;;;;;;0.88;0.70;;;4.70;92.00;;;;;;6247144;22;20109;-86
2021/12/27 09:34:52;;;;;;;0.95;0.60;;;4.80;92.00;;;;;;6221630;22;20016;-86
2021/12/27 09:37:18;;;;;;;1.15;0.77;;;4.80;92.10;;;;;;6296504;22;20360;-85
2021/12/27 09:39:44;;;;;;;1.63;0.88;;;4.80;92.00;;;;;;6316972;22;20017;-87
2021/12/27 09:47:16;;;;;;;1.20;0.82;;;4.90;92.10;;;;;;6366432;22;20138;-89
2021/12/27 09:49:50;;;;;;;1.00;0.73;;;4.90;92.00;;;;;;6373856;22;20133;-83
2021/12/27 09:55:12;;;;;;;1.23;0.70;;;5.00;91.90;;;;;;6127436;23;20268;-82
2021/12/27 09:57:59;;;;;;;2.50;1.10;;;5.00;91.90;;;;;;6125576;23;20014;-84
2021/12/27 10:00:27;;;;;;;2.10;1.00;;;5.10;92.00;;;;;;6126862;23;20100;-82
2021/12/27 10:02:55;;;;;;;2.00;1.13;;;5.10;92.20;;;;;;6123492;23;20013;-84
2021/12/27 10:05:25;;;;;;;2.20;1.30;;;5.10;91.90;;;;;;6126008;23;20057;-82
2021/12/27 10:07:53;;;;;;;1.67;0.95;;;5.10;91.90;;;;;;6124922;23;20010;-85
2021/12/27 10:10:20;;;;;;;0.98;0.73;;;5.10;91.90;;;;;;6085177;23;20015;-84
2021/12/27 10:12:47;;;;;;;1.80;1.00;;;5.20;92.00;;;;;;5996177;23;20341;-82
2021/12/27 10:15:17;;;;;;;2.85;1.30;;;5.20;91.90;;;;;;6035952;23;20110;-85
2021/12/27 10:17:44;;;;;;;1.38;0.90;;;5.30;91.90;;;;;;5988387;23;20126;-85
2021/12/27 10:20:25;;;;;;;2.13;1.30;;;5.20;91.90;;;;;;6015290;23;20019;-83
2021/12/27 10:22:54;;;;;;;1.70;0.85;;;5.40;91.90;;;;;;5992223;23;20047;-81
2021/12/27 10:25:28;;;;;;;2.60;1.20;;;5.40;91.90;;;;;;6031030;23;20129;-83
2021/12/27 10:27:57;;;;;;;1.80;1.00;;;5.50;91.90;;;;;;6128096;23;20005;-83
2021/12/27 10:38:07;;;;;;;1.05;0.70;;;5.70;91.80;;;;;;5944455;24;20174;-85
2021/12/27 11:01:08;;;;;;;3.63;2.28;;;5.80;90.10;;;;;;6183284;22;20346;-84
2021/12/27 11:03:58;;;;;;;3.95;2.10;;;6.30;92.10;;;;;;6115934;23;20386;-85
2021/12/27 11:06:30;;;;;;;4.18;2.00;;;6.40;92.10;;;;;;6203031;23;20048;-84
2021/12/27 11:08:57;;;;;;;;;;;6.50;92.00;;;;;;6103023;23;20424;-84
2021/12/27 11:11:29;;;;;;;2.53;1.60;;;6.50;91.90;;;;;;6176360;23;19909;-85
2021/12/27 11:13:57;;;;;;;2.30;1.30;;;6.50;91.80;;;;;;6075438;23;20038;-81
2021/12/27 11:16:28;;;;;;;2.13;1.27;;;6.50;91.80;;;;;;6106582;23;20014;-82
2021/12/27 11:18:56;;;;;;;3.05;1.40;;;6.50;91.80;;;;;;6081310;23;20049;-82
2021/12/27 11:21:24;;;;;;;1.73;1.25;;;6.40;91.80;;;;;;6103869;23;20014;-84
2021/12/27 11:23:51;;;;;;;2.05;1.20;;;6.50;91.90;;;;;;6106583;23;20038;-82
2021/12/27 11:26:30;;;;;;;1.48;0.90;;;6.50;91.90;;;;;;6088328;23;20022;-83
2021/12/27 11:29:09;;;;;;;1.02;0.80;;;6.60;91.90;;;;;;6113662;23;20026;-84
2021/12/27 11:31:36;;;;;;;1.40;1.10;;;6.70;91.90;;;;;;6128258;23;20426;-83
2021/12/27 11:34:05;;;;;;;2.53;1.33;;;6.80;91.80;;;;;;6113504;23;20956;-85
2021/12/27 11:36:37;;;;;;;2.15;1.10;;;6.80;91.80;;;;;;6133462;23;20010;-85
2021/12/27 11:39:22;;;;;;;2.17;1.30;;;6.90;91.80;;;;;;6113805;23;20017;-84
2021/12/27 11:42:04;;;;;;;1.52;0.90;;;6.90;91.70;;;;;;6165752;23;20021;-84
2021/12/27 11:44:53;;;;;;;1.52;1.13;;;7.00;91.70;;;;;;6113974;23;20014;-82
2021/12/27 11:47:30;;;;;;;1.50;0.95;;;7.00;91.60;;;;;;6113177;23;20074;-85
2021/12/27 11:50:01;;;;;;;2.70;1.33;;;7.10;91.60;;;;;;6108799;23;20014;-86
2021/12/27 11:52:31;;;;;;;1.50;0.82;;;7.20;91.60;;;;;;6133255;23;20005;-85
2021/12/27 11:55:05;;;;;;;2.00;1.00;;;7.20;91.60;;;;;;6082783;23;20009;-85
2021/12/27 11:57:52;;;;;;;1.15;0.75;;;7.20;91.50;;;;;;6124819;23;20010;-85
2021/12/27 12:00:34;;;;;;;1.15;0.80;;;7.30;91.60;;;;;;6135636;23;20150;-81
2021/12/27 12:03:16;;;;;;;0.70;0.70;;;7.30;91.60;;;;;;6100660;23;20009;-81
2021/12/27 12:05:47;;;;;;;1.25;0.70;;;7.30;91.60;;;;;;6124501;23;20068;-81
2021/12/27 12:08:15;;;;;;;1.45;0.85;;;7.30;91.50;;;;;;6074575;23;20017;-81
2021/12/27 12:10:59;;;;;;;1.10;0.77;;;7.40;91.60;;;;;;6125268;23;20009;-81
2021/12/27 12:13:43;;;;;;;1.35;0.82;;;7.50;91.60;;;;;;6150405;23;20010;-79
2021/12/27 12:16:12;;;;;;;1.73;0.80;;;7.50;91.50;;;;;;6100154;23;20009;-79
2021/12/27 12:18:42;;;;;;;1.30;0.98;;;7.50;91.40;;;;;;6099482;23;20028;-79
2021/12/27 12:21:39;;;;;;;1.83;1.00;;;7.60;91.40;;;;;;6150755;23;20445;-79
2021/12/27 12:24:20;;;;;;;1.60;0.95;;;7.60;91.40;;;;;;6124143;23;20014;-79
2021/12/27 12:27:04;;;;;;;1.00;0.85;;;7.60;91.40;;;;;;6100436;23;20361;-79
2021/12/27 12:29:38;;;;;;;1.05;0.70;;;7.60;91.40;;;;;;6111679;23;20455;-79
2021/12/27 12:32:06;;;;;;;0.75;0.60;;;7.60;91.40;;;;;;6124549;23;20021;-78
2021/12/27 12:34:34;;;;;;;0.95;0.70;;;7.80;91.50;;;;;;6100324;23;20009;-80
2021/12/27 12:37:03;;;;;;;0.60;0.50;;;7.60;91.50;;;;;;6198145;23;20006;-80
2021/12/27 12:39:43;;;;;;;0.75;0.68;;;7.70;91.60;;;;;;6073514;23;20014;-88
2021/12/27 12:42:11;;;;;;;1.38;0.88;;;7.70;91.60;;;;;;6077197;23;20429;-86
2021/12/27 12:45:02;;;;;;;1.20;0.70;;;7.70;91.60;;;;;;6098848;23;20002;-87
2021/12/27 12:47:36;;;;;;;1.33;0.85;;;7.70;91.60;;;;;;6103565;23;20088;-85
2021/12/27 12:50:16;;;;;;;1.23;0.73;;;7.70;91.60;;;;;;6099047;23;20014;-84
2021/12/27 12:52:59;;;;;;;1.15;0.70;;;7.80;91.60;;;;;;6100535;23;20010;-84
2021/12/27 12:55:31;;;;;;;1.58;0.90;;;7.80;91.60;;;;;;6077778;23;20064;-83
2021/12/27 12:57:57;;;;;;;2.38;1.25;;;7.90;91.60;;;;;;6123957;23;20013;-83
2021/12/27 13:00:27;;;;;;;2.03;1.25;;;7.80;91.60;;;;;;6098765;23;20010;-83
2021/12/27 13:02:53;;;;;;;1.33;0.70;;;7.80;91.60;;;;;;6150431;23;20013;-83
2021/12/27 13:05:20;;;;;;;1.75;0.98;;;7.80;91.60;;;;;;6150700;23;20041;-83
2021/12/27 13:07:49;;;;;;;4.63;1.80;;;7.80;91.60;;;;;;6096868;23;20429;-83
2021/12/27 13:10:23;;;;;;;2.90;1.50;;;7.80;91.60;;;;;;6099963;23;20024;-83
2021/12/27 13:12:50;;;;;;;2.05;1.23;;;7.90;91.70;;;;;;6123787;23;20044;-83
2021/12/27 13:15:22;;;;;;;1.60;1.10;;;7.80;91.70;;;;;;6123741;23;20325;-84
2021/12/27 13:18:06;;;;;;;2.08;0.93;;;7.80;91.70;;;;;;6073750;23;20059;-83
2021/12/27 13:20:34;;;;;;;1.88;1.08;;;7.90;91.80;;;;;;6099742;23;20009;-84
2021/12/27 13:26:39;;;;;;;1.30;0.85;;;7.80;91.70;;;;;;6082295;23;20014;-86
2021/12/27 13:29:07;;;;;;;1.42;0.90;;;8.10;91.70;;;;;;6075753;23;20017;-83
2021/12/27 13:32:15;;;;;;;1.17;0.80;;;8.00;91.60;;;;;;6103166;23;20519;-86
2021/12/27 13:34:40;;;;;;;1.90;1.00;;;8.00;91.60;;;;;;6083637;23;20094;-83
2021/12/27 13:37:06;;;;;;;1.88;1.02;;;8.00;91.50;;;;;;6099787;23;20021;-81
2021/12/27 13:39:42;;;;;;;1.50;1.10;;;8.10;91.60;;;;;;6081249;23;20030;-84
2021/12/27 13:49:09;;;;;;;1.13;0.75;;;8.10;91.60;;;;;;5923885;24;20056;-81
2021/12/27 13:51:39;;;;;;;1.35;0.85;;;8.20;91.60;;;;;;5924526;24;20020;-81
2021/12/27 13:54:08;;;;;;;1.23;0.85;;;8.10;91.60;;;;;;5926415;24;20065;-82
2021/12/27 13:57:11;;;;;;;1.20;0.80;;;8.10;91.60;;;;;;5913734;24;20029;-84
2021/12/27 14:00:06;;;;;;;1.65;1.00;;;8.10;91.70;;;;;;5870105;24;20029;-84
2021/12/27 14:06:43;;;;;;;1.45;1.00;;;8.10;91.70;;;;;;6007494;23;20384;-78
2021/12/27 14:09:10;;;;;;;1.60;1.20;;;8.00;91.70;;;;;;6002670;23;20102;-78
2021/12/27 14:11:57;;;;;;;2.20;1.10;;;8.10;91.70;;;;;;6035868;23;20059;-79
2021/12/27 14:14:42;;;;;;;2.00;0.93;;;8.00;91.80;;;;;;6012882;23;20023;-78
2021/12/27 14:17:14;;;;;;;1.42;0.98;;;8.00;91.80;;;;;;6146928;23;20021;-78
2021/12/27 14:19:46;;;;;;;1.08;0.80;;;8.00;91.80;;;;;;6170423;23;20016;-80
2021/12/27 14:25:15;;;;;;;3.10;0.90;;;7.90;91.80;;;;;;6183998;23;20061;-85
2021/12/27 14:28:10;;;;;;;1.70;1.00;;;8.00;91.80;;;;;;6077643;23;20018;-85
2021/12/27 14:30:55;;;;;;;1.83;1.27;;;8.00;91.90;;;;;;6063238;23;20015;-86
2021/12/27 14:33:49;;;;;;;1.63;1.00;;;7.90;91.80;;;;;;6018603;23;20014;-87
2021/12/27 14:44:01;;;;;;;0.75;0.60;;;7.90;91.90;;;;;;6092167;23;20053;-79
2021/12/27 14:51:04;;;;;;;1.45;0.90;;;7.90;91.90;;;;;;5892388;24;20109;-79
2021/12/27 14:56:55;;;;;;;1.90;1.05;;;7.90;91.90;;;;;;5861282;24;20013;-78
2021/12/27 14:59:26;;;;;;;1.33;0.85;;;7.90;91.90;;;;;;5873500;24;20029;-79
2021/12/27 15:01:58;;;;;;;1.35;0.82;;;7.80;91.90;;;;;;5870419;24;20017;-80
2021/12/27 15:04:27;;;;;;;1.45;0.80;;;7.80;91.90;;;;;;5910899;24;20017;-81
2021/12/27 15:07:58;;;;;;;1.15;0.95;;;7.80;92.00;;;;;;5925621;24;20103;-83
2021/12/27 15:14:23;;;;;;;0.93;0.75;;;7.80;92.10;;;;;;5867962;24;20030;-80
2021/12/27 15:20:22;;;;;;;1.05;0.52;;;7.80;92.10;;;;;;5820786;24;20048;-80
2021/12/27 15:22:49;;;;;;;1.58;0.73;;;7.80;92.10;;;;;;5809863;24;20027;-80
2021/12/27 15:25:15;;;;;;;1.30;0.80;;;7.70;92.10;;;;;;5834038;23;20061;-79
2021/12/27 15:27:41;;;;;;;1.00;0.70;;;7.80;92.10;;;;;;6071253;23;20014;-79
2021/12/27 15:30:09;;;;;;;2.28;1.05;;;7.70;92.10;;;;;;6104181;23;20029;-80
2021/12/27 15:33:27;;;;;;;1.30;0.80;;;7.60;92.10;;;;;;6094204;23;20018;-82
2021/12/27 15:35:56;;;;;;;1.00;0.68;;;7.70;92.20;;;;;;6059965;23;20015;-82
2021/12/27 15:38:47;;;;;;;0.63;0.52;;;7.70;92.20;;;;;;6066300;23;20019;-82
2021/12/27 15:42:14;;;;;;;1.23;0.80;;;7.70;92.20;;;;;;6007963;23;20027;-81
2021/12/27 15:48:42;;;;;;;0.93;0.63;;;7.80;92.30;;;;;;5972357;23;20076;-77
2021/12/27 15:51:08;;;;;;;1.30;0.80;;;7.60;92.20;;;;;;6028366;23;20023;-80
2021/12/27 15:53:36;;;;;;;0.88;0.60;;;7.60;92.20;;;;;;6022395;23;20048;-80
2021/12/27 15:56:04;;;;;;;1.55;1.00;;;7.60;92.20;;;;;;5986469;23;20095;-77
2021/12/27 15:58:30;;;;;;;1.38;0.93;;;7.50;92.30;;;;;;6012670;23;20023;-78
2021/12/27 16:01:01;;;;;;;2.00;1.08;;;7.60;92.30;;;;;;5989066;23;20015;-78
2021/12/27 16:07:12;;;;;;;1.48;0.70;;;7.50;92.40;;;;;;6004228;23;20038;-83
2021/12/27 16:10:11;;;;;;;1.50;0.90;;;7.50;92.40;;;;;;5986634;23;20478;-81
2021/12/27 16:12:49;;;;;;;1.17;0.75;;;7.50;92.40;;;;;;5928941;24;20357;-81
2021/12/27 16:15:15;;;;;;;1.10;0.77;;;7.40;92.40;;;;;;5943091;24;20014;-79
2021/12/27 16:17:41;;;;;;;1.48;0.80;;;7.50;92.40;;;;;;5929226;24;20021;-78
2021/12/27 16:20:10;;;;;;;1.58;0.98;;;7.40;92.40;;;;;;5952614;24;20556;-80
2021/12/27 16:22:40;;;;;;;1.00;0.80;;;7.40;92.40;;;;;;5932174;24;20020;-79
2021/12/27 16:25:09;;;;;;;1.83;0.85;;;7.40;92.50;;;;;;5942231;24;20023;-79
2021/12/27 16:27:35;;;;;;;1.52;0.90;;;7.40;92.50;;;;;;5888727;24;20065;-79
2021/12/27 16:30:01;;;;;;;1.02;0.70;;;7.40;92.50;;;;;;5941499;24;20055;-78
2021/12/27 16:32:26;;;;;;;1.55;0.80;;;7.40;92.50;;;;;;5935324;24;20020;-78
2021/12/27 16:34:55;;;;;;;0.80;0.73;;;7.40;92.50;;;;;;5914108;24;20095;-80
2021/12/27 16:37:22;;;;;;;2.03;1.08;;;7.30;92.70;;;;;;6025762;23;20066;-80
2021/12/27 16:40:15;;;;;;;1.42;0.75;;;7.40;92.50;;;;;;5996931;23;20024;-83
2021/12/27 16:42:47;;;;;;;1.15;0.80;;;7.30;92.50;;;;;;5970407;23;20019;-77
2021/12/27 16:53:33;;;;;;;1.88;1.10;;;7.30;92.60;;;;;;5897259;24;20433;-79
2021/12/27 17:00:15;;;;;;;;;;;7.30;92.50;;;;;;5845547;24;20025;-78
2021/12/27 17:09:41;;;;;;;1.10;0.68;;;7.20;92.50;;;;;;5758850;24;20031;-79
2021/12/27 17:12:25;;;;;;;1.98;1.05;;;7.20;92.50;;;;;;5739129;24;20020;-79
2021/12/27 17:14:52;;;;;;;0.98;0.70;;;7.20;92.50;;;;;;5740842;24;20067;-79
2021/12/27 17:17:20;;;;;;;2.45;1.17;;;7.40;92.60;;;;;;5729601;24;20020;-79
2021/12/27 17:20:04;;;;;;;1.48;0.73;;;7.10;92.50;;;;;;5743261;24;20031;-80
2021/12/27 17:22:33;;;;;;;0.65;0.60;;;7.30;92.60;;;;;;5729944;25;20027;-80
2021/12/27 17:49:43;;;;;;;1.05;0.80;;;7.20;92.50;;;;;;5949501;24;20504;-84
2021/12/27 18:26:02;;;;;;;0.73;0.50;;;7.20;92.50;;;;;;5971615;24;20031;-83
2021/12/27 19:49:28;;;;;;;1.20;0.88;;;7.50;92.50;;;;;;6166225;22;20039;-84
2021/12/27 19:52:00;;;;;;;1.35;0.77;;;7.40;92.50;;;;;;6205731;22;20016;-82
2021/12/27 19:54:29;;;;;;;1.02;0.57;;;7.60;92.50;;;;;;6255570;22;20355;-81
2021/12/27 19:56:56;;;;;;;1.02;0.60;;;7.60;92.50;;;;;;6251358;22;20008;-82
2021/12/27 20:00:09;;;;;;;2.00;1.10;;;7.70;92.50;;;;;;6235733;22;20070;-82
2021/12/27 20:03:09;;;;;;;1.10;0.80;;;7.60;92.50;;;;;;6182328;23;20435;-82
2021/12/27 20:06:08;;;;;;;1.10;0.73;;;7.50;92.50;;;;;;6053397;23;20022;-85
2021/12/27 20:08:43;;;;;;;2.28;1.10;;;7.70;92.60;;;;;;6050674;23;20097;-82
2021/12/27 20:11:08;;;;;;;1.15;0.90;;;7.60;92.50;;;;;;6021793;23;20014;-81
2021/12/27 20:13:37;;;;;;;0.88;0.80;;;7.70;92.80;;;;;;5992216;23;20008;-82